createdAt,value
2023-03-21T00:02:25.715Z,100.00
2023-03-21T00:05:54.927Z,100.00
2023-03-21T00:08:47.386Z,100.00
2023-03-21T00:11:41.189Z,100.00
2023-03-21T00:14:39.793Z,100.00
2023-03-21T00:17:18.574Z,100.00
2023-03-21T00:19:52.826Z,100.00
2023-03-21T00:22:29.390Z,100.00
2023-03-21T15:30:54.694Z,63.14
2023-03-21T15:33:26.827Z,63.73
2023-03-21T15:35:59.791Z,64.19
2023-03-21T15:38:35.105Z,65.06
2023-03-21T15:41:29.158Z,66.22
2023-03-21T15:44:15.896Z,66.10
2023-03-21T15:46:49.996Z,67.77
2023-03-21T15:49:27.252Z,67.45
2023-03-21T15:52:05.326Z,69.90
2023-03-21T15:54:43.489Z,69.15
2023-03-21T15:57:24.087Z,69.96
2023-03-21T16:00:00.769Z,68.76
2023-03-21T16:02:32.299Z,68.95
2023-03-21T16:05:20.895Z,69.83
2023-03-21T16:07:50.692Z,71.82
2023-03-21T16:10:32.590Z,73.77
2023-03-21T16:13:02.223Z,72.06
2023-03-21T16:15:32.764Z,76.29
2023-03-21T16:18:09.048Z,75.62
2023-03-21T16:20:45.154Z,81.01
2023-03-21T16:23:17.338Z,74.55
2023-03-21T16:25:47.089Z,78.74
2023-03-21T16:28:18.282Z,78.06
2023-03-21T16:30:47.733Z,77.23
2023-03-21T16:33:18.550Z,76.66
2023-03-21T16:35:48.487Z,79.81
2023-03-21T16:38:17.954Z,78.49
2023-03-21T16:40:47.427Z,79.02
2023-03-21T16:43:16.959Z,84.61
2023-03-21T16:45:46.481Z,82.24
2023-03-21T16:48:18.750Z,84.27
2023-03-21T16:50:49.821Z,84.43
2023-03-21T16:53:19.236Z,87.54
2023-03-21T16:55:48.771Z,90.60
2023-03-21T16:58:18.509Z,89.12
2023-03-21T17:00:48.030Z,90.74
2023-03-21T17:03:19.486Z,92.94
2023-03-21T17:05:49.321Z,94.24
2023-03-21T17:08:21.821Z,94.57
2023-03-21T17:10:52.122Z,93.00
2023-03-21T17:13:21.533Z,94.26
2023-03-21T17:15:51.103Z,96.37
2023-03-21T17:18:21.887Z,96.96
2023-03-21T17:20:51.352Z,98.19
2023-03-21T17:23:20.887Z,99.19
2023-03-21T17:25:50.456Z,100.00
2023-03-21T17:28:19.935Z,100.00
2023-03-21T17:30:49.371Z,100.00
2023-03-21T17:33:18.768Z,100.00
2023-03-21T17:35:49.806Z,100.00
2023-03-21T17:38:19.383Z,100.00
2023-03-21T17:40:50.549Z,100.00
2023-03-21T17:43:23.283Z,100.00
2023-03-21T17:45:53.426Z,100.00
2023-03-21T17:48:23.052Z,100.00
2023-03-21T17:50:53.923Z,100.00
2023-03-21T17:53:23.481Z,100.00
2023-03-21T17:55:52.903Z,100.00
2023-03-21T17:58:22.380Z,100.00
2023-03-21T18:00:51.868Z,100.00
2023-03-21T18:03:21.458Z,100.00
2023-03-21T18:05:50.920Z,100.00
2023-03-21T18:08:22.093Z,100.00
2023-03-21T18:10:52.692Z,100.00
2023-03-21T18:13:23.272Z,100.00
2023-03-21T18:15:53.162Z,100.00
2023-03-21T18:18:22.617Z,100.00
2023-03-21T18:20:54.014Z,100.00
2023-03-21T18:23:25.294Z,100.00
2023-03-21T18:25:55.000Z,100.00
2023-03-21T18:28:27.377Z,100.00
2023-03-21T18:31:17.435Z,100.00
2023-03-21T18:33:49.092Z,100.00
2023-03-21T18:36:25.540Z,100.00
2023-03-21T18:38:58.834Z,100.00
2023-03-21T18:41:29.330Z,100.00
2023-03-21T18:44:09.161Z,100.00
2023-03-21T18:46:47.033Z,100.00
2023-03-21T18:52:07.807Z,100.00
2023-03-21T18:54:39.019Z,100.00
2023-03-21T18:59:59.704Z,100.00
2023-03-21T19:02:29.625Z,100.00
2023-03-21T19:04:59.119Z,100.00
2023-03-21T19:07:28.579Z,100.00
2023-03-21T19:10:16.571Z,100.00
2023-03-21T19:12:46.912Z,100.00
2023-03-21T19:15:19.614Z,100.00
2023-03-21T19:20:45.127Z,100.00
2023-03-21T19:24:19.403Z,100.00
2023-03-21T19:26:31.638Z,100.00
2023-03-21T19:29:01.260Z,100.00
2023-03-21T19:31:31.053Z,100.00
2023-03-21T19:34:02.336Z,100.00
2023-03-21T19:36:34.570Z,100.00
2023-03-21T19:39:04.633Z,100.00
2023-03-21T19:41:36.365Z,100.00
2023-03-21T19:44:06.622Z,100.00
2023-03-21T19:46:36.094Z,100.00
2023-03-21T19:49:06.653Z,100.00
2023-03-21T19:51:36.769Z,100.00
2023-03-21T19:54:07.552Z,100.00
2023-03-21T19:56:38.415Z,100.00
2023-03-21T19:59:08.496Z,100.00
2023-03-21T20:01:39.163Z,100.00
2023-03-21T20:04:09.021Z,100.00
2023-03-21T20:06:39.152Z,100.00
2023-03-21T20:12:00.769Z,100.00
2023-03-21T20:14:30.451Z,100.00
2023-03-21T20:16:59.989Z,100.00
2023-03-21T20:19:29.482Z,100.00
2023-03-21T20:22:02.529Z,100.00
2023-03-21T20:24:32.777Z,100.00
2023-03-21T20:27:04.583Z,100.00
2023-03-21T20:30:08.854Z,100.00
2023-03-21T20:32:23.925Z,100.00
2023-03-21T20:35:02.649Z,100.00
2023-03-21T20:37:46.160Z,100.00
2023-03-21T20:40:17.515Z,100.00
2023-03-21T20:42:49.156Z,100.00
2023-03-21T20:45:19.262Z,100.00
2023-03-21T20:47:49.577Z,100.00
2023-03-21T20:50:22.110Z,100.00
2023-03-21T20:53:05.847Z,100.00
2023-03-21T20:55:36.439Z,100.00
2023-03-21T20:58:27.211Z,100.00
2023-03-21T21:01:03.700Z,100.00
2023-03-21T21:03:39.133Z,100.00
2023-03-21T21:06:14.173Z,100.00
2023-03-21T21:08:45.456Z,100.00
2023-03-21T21:12:02.959Z,100.00
2023-03-21T21:14:09.029Z,100.00
2023-03-21T21:16:38.534Z,100.00
2023-03-21T21:19:08.236Z,100.00
2023-03-21T21:21:37.937Z,100.00
2023-03-21T21:24:09.446Z,100.00
2023-03-21T21:26:45.923Z,100.00
2023-03-21T21:29:18.327Z,100.00
2023-03-21T21:31:50.852Z,100.00
2023-03-21T21:34:20.317Z,100.00
2023-03-21T21:36:49.988Z,100.00
2023-03-21T21:39:21.862Z,100.00
2023-03-21T21:41:51.554Z,100.00
2023-03-21T21:44:22.418Z,100.00
2023-03-21T21:46:52.266Z,100.00
2023-03-21T21:49:21.684Z,100.00
2023-03-21T21:51:51.135Z,100.00
2023-03-21T21:54:20.594Z,100.00
2023-03-21T21:56:54.040Z,100.00
2023-03-21T21:59:25.092Z,100.00
2023-03-21T22:01:54.587Z,100.00
2023-03-21T22:04:27.860Z,100.00
2023-03-21T22:06:57.786Z,100.00
2023-03-21T22:09:27.334Z,100.00
2023-03-21T22:11:56.761Z,100.00
2023-03-21T22:14:27.521Z,100.00
2023-03-21T22:16:58.145Z,100.00
2023-03-21T22:19:28.284Z,100.00
2023-03-21T22:21:58.183Z,100.00
2023-03-21T22:24:27.866Z,100.00
2023-03-21T22:27:02.007Z,100.00
2023-03-21T22:29:32.945Z,100.00
2023-03-21T22:32:02.776Z,100.00
2023-03-21T22:34:32.278Z,100.00
2023-03-21T22:37:02.534Z,100.00
2023-03-21T22:39:32.248Z,100.00
2023-03-21T22:42:04.336Z,100.00
2023-03-21T22:44:35.529Z,100.00
2023-03-21T22:47:08.395Z,100.00
2023-03-21T22:49:39.098Z,100.00
2023-03-21T22:52:08.613Z,100.00
2023-03-21T22:54:38.410Z,100.00
2023-03-21T22:57:08.887Z,100.00
2023-03-21T22:59:39.601Z,100.00
2023-03-21T23:02:10.024Z,100.00
2023-03-21T23:04:40.433Z,100.00
2023-03-21T23:07:10.194Z,100.00
2023-03-21T23:09:39.688Z,100.00
2023-03-21T23:12:15.968Z,100.00
2023-03-21T23:14:47.290Z,100.00
2023-03-21T23:17:17.208Z,100.00
2023-03-21T23:19:46.732Z,100.00
2023-03-21T23:22:16.533Z,100.00
2023-03-21T23:24:46.979Z,100.00
2023-03-21T23:27:18.122Z,100.00
2023-03-21T23:29:49.226Z,100.00
2023-03-21T23:32:19.010Z,100.00
2023-03-21T23:34:48.663Z,100.00
2023-03-21T23:37:18.591Z,100.00
2023-03-21T23:39:49.110Z,100.00
2023-03-21T23:42:18.808Z,100.00
2023-03-21T23:44:49.764Z,100.00
2023-03-21T23:47:19.335Z,100.00
2023-03-21T23:49:49.905Z,100.00
2023-03-21T23:52:19.821Z,100.00
2023-03-21T23:54:49.231Z,100.00
2023-03-21T23:57:18.678Z,100.00
2023-03-21T23:59:49.414Z,100.00
